sensor_id;sensor_type;location;lat;lon;timestamp;temperature;humidity
17859;DHT22;35426;30.698;104.050;2023-07-08T00:01:44;42.50;99.90
17859;DHT22;35426;30.698;104.050;2023-07-08T00:04:18;43.00;99.90
17859;DHT22;35426;30.698;104.050;2023-07-08T00:06:54;43.30;99.90
17859;DHT22;35426;30.698;104.050;2023-07-08T00:09:27;43.50;99.90
17859;DHT22;35426;30.698;104.050;2023-07-08T00:12:01;44.30;99.90
17859;DHT22;35426;30.698;104.050;2023-07-08T00:14:35;44.40;99.90
17859;DHT22;35426;30.698;104.050;2023-07-08T00:17:12;44.60;99.90
17859;DHT22;35426;30.698;104.050;2023-07-08T00:19:46;45.00;99.90
17859;DHT22;35426;30.698;104.050;2023-07-08T00:22:22;45.00;99.90
17859;DHT22;35426;30.698;104.050;2023-07-08T00:24:55;44.50;99.90
17859;DHT22;35426;30.698;104.050;2023-07-08T00:27:30;44.20;99.90
17859;DHT22;35426;30.698;104.050;2023-07-08T00:30:25;43.70;99.90
17859;DHT22;35426;30.698;104.050;2023-07-08T00:32:58;43.40;99.90
17859;DHT22;35426;30.698;104.050;2023-07-08T00:35:35;43.30;99.90
17859;DHT22;35426;30.698;104.050;2023-07-08T00:38:17;42.70;99.90
17859;DHT22;35426;30.698;104.050;2023-07-08T00:41:00;44.30;99.90
17859;DHT22;35426;30.698;104.050;2023-07-08T00:43:37;45.00;99.90
17859;DHT22;35426;30.698;104.050;2023-07-08T00:46:29;45.60;99.90
17859;DHT22;35426;30.698;104.050;2023-07-08T00:49:17;43.30;99.90
17859;DHT22;35426;30.698;104.050;2023-07-08T00:51:54;42.50;99.90
17859;DHT22;35426;30.698;104.050;2023-07-08T00:54:31;45.00;99.90
17859;DHT22;35426;30.698;104.050;2023-07-08T00:57:04;46.20;99.90
17859;DHT22;35426;30.698;104.050;2023-07-08T00:59:41;44.20;99.90
17859;DHT22;35426;30.698;104.050;2023-07-08T01:02:18;45.00;99.90
17859;DHT22;35426;30.698;104.050;2023-07-08T01:04:58;45.60;99.90
17859;DHT22;35426;30.698;104.050;2023-07-08T01:07:35;44.70;99.90
17859;DHT22;35426;30.698;104.050;2023-07-08T01:10:12;43.90;99.90
17859;DHT22;35426;30.698;104.050;2023-07-08T01:12:50;43.80;99.90
17859;DHT22;35426;30.698;104.050;2023-07-08T01:15:35;43.20;99.90
17859;DHT22;35426;30.698;104.050;2023-07-08T01:18:11;42.90;99.90
17859;DHT22;35426;30.698;104.050;2023-07-08T01:20:47;43.20;99.90
17859;DHT22;35426;30.698;104.050;2023-07-08T01:23:25;43.10;99.90
17859;DHT22;35426;30.698;104.050;2023-07-08T01:26:00;44.20;99.90
17859;DHT22;35426;30.698;104.050;2023-07-08T01:28:34;42.90;99.90
17859;DHT22;35426;30.698;104.050;2023-07-08T01:31:08;44.00;99.90
17859;DHT22;35426;30.698;104.050;2023-07-08T01:33:41;44.80;99.90
17859;DHT22;35426;30.698;104.050;2023-07-08T01:36:14;42.30;99.90
17859;DHT22;35426;30.698;104.050;2023-07-08T01:38:50;41.70;99.90
17859;DHT22;35426;30.698;104.050;2023-07-08T01:41:23;41.50;99.90
17859;DHT22;35426;30.698;104.050;2023-07-08T01:43:56;41.50;99.90
17859;DHT22;35426;30.698;104.050;2023-07-08T01:46:30;42.00;99.90
17859;DHT22;35426;30.698;104.050;2023-07-08T01:49:04;41.70;99.90
17859;DHT22;35426;30.698;104.050;2023-07-08T01:51:37;41.50;99.90
17859;DHT22;35426;30.698;104.050;2023-07-08T01:54:14;40.60;99.90
17859;DHT22;35426;30.698;104.050;2023-07-08T01:56:54;40.60;99.90
17859;DHT22;35426;30.698;104.050;2023-07-08T01:59:28;40.90;99.90
17859;DHT22;35426;30.698;104.050;2023-07-08T02:02:01;41.30;99.90
17859;DHT22;35426;30.698;104.050;2023-07-08T02:04:35;41.20;99.90
17859;DHT22;35426;30.698;104.050;2023-07-08T02:07:08;41.30;99.90
17859;DHT22;35426;30.698;104.050;2023-07-08T02:09:45;42.00;99.90
17859;DHT22;35426;30.698;104.050;2023-07-08T02:12:20;41.00;99.90
17859;DHT22;35426;30.698;104.050;2023-07-08T02:14:53;39.60;99.90
17859;DHT22;35426;30.698;104.050;2023-07-08T02:17:28;40.60;99.90
17859;DHT22;35426;30.698;104.050;2023-07-08T02:20:05;41.50;99.90
17859;DHT22;35426;30.698;104.050;2023-07-08T02:22:41;41.50;99.90
17859;DHT22;35426;30.698;104.050;2023-07-08T02:25:16;41.50;99.90
17859;DHT22;35426;30.698;104.050;2023-07-08T02:27:50;41.60;99.90
17859;DHT22;35426;30.698;104.050;2023-07-08T02:30:22;41.40;99.90
17859;DHT22;35426;30.698;104.050;2023-07-08T02:32:57;40.40;99.90
17859;DHT22;35426;30.698;104.050;2023-07-08T02:35:30;39.90;99.90
17859;DHT22;35426;30.698;104.050;2023-07-08T02:38:04;40.10;99.90
17859;DHT22;35426;30.698;104.050;2023-07-08T02:40:40;39.80;99.90
17859;DHT22;35426;30.698;104.050;2023-07-08T02:43:13;40.10;99.90
17859;DHT22;35426;30.698;104.050;2023-07-08T02:45:50;40.00;99.90
17859;DHT22;35426;30.698;104.050;2023-07-08T02:48:24;40.10;99.90
17859;DHT22;35426;30.698;104.050;2023-07-08T02:51:00;40.40;99.90
17859;DHT22;35426;30.698;104.050;2023-07-08T02:53:34;40.70;99.90
17859;DHT22;35426;30.698;104.050;2023-07-08T02:56:10;40.80;99.90
17859;DHT22;35426;30.698;104.050;2023-07-08T02:58:43;39.80;99.90
17859;DHT22;35426;30.698;104.050;2023-07-08T03:01:16;40.50;99.90
17859;DHT22;35426;30.698;104.050;2023-07-08T03:03:50;40.50;99.90
17859;DHT22;35426;30.698;104.050;2023-07-08T03:06:27;40.20;99.90
17859;DHT22;35426;30.698;104.050;2023-07-08T03:09:03;39.80;99.90
17859;DHT22;35426;30.698;104.050;2023-07-08T03:11:40;39.90;99.90
17859;DHT22;35426;30.698;104.050;2023-07-08T03:14:15;39.30;99.90
17859;DHT22;35426;30.698;104.050;2023-07-08T03:16:50;39.50;99.90
17859;DHT22;35426;30.698;104.050;2023-07-08T03:19:25;39.70;99.90
17859;DHT22;35426;30.698;104.050;2023-07-08T03:21:59;38.90;99.90
17859;DHT22;35426;30.698;104.050;2023-07-08T03:24:33;38.50;99.90
17859;DHT22;35426;30.698;104.050;2023-07-08T03:27:10;38.80;99.90
17859;DHT22;35426;30.698;104.050;2023-07-08T03:29:47;39.10;99.90
17859;DHT22;35426;30.698;104.050;2023-07-08T03:32:21;39.60;99.90
17859;DHT22;35426;30.698;104.050;2023-07-08T03:34:56;39.10;99.90
17859;DHT22;35426;30.698;104.050;2023-07-08T03:37:32;38.50;99.90
17859;DHT22;35426;30.698;104.050;2023-07-08T03:40:09;38.70;99.90
17859;DHT22;35426;30.698;104.050;2023-07-08T03:42:45;39.20;99.90
17859;DHT22;35426;30.698;104.050;2023-07-08T03:45:18;39.50;99.90
17859;DHT22;35426;30.698;104.050;2023-07-08T03:47:53;39.40;99.90
17859;DHT22;35426;30.698;104.050;2023-07-08T03:50:26;39.40;99.90
17859;DHT22;35426;30.698;104.050;2023-07-08T03:52:59;39.50;99.90
17859;DHT22;35426;30.698;104.050;2023-07-08T03:55:37;39.40;99.90
17859;DHT22;35426;30.698;104.050;2023-07-08T03:58:12;39.70;99.90
17859;DHT22;35426;30.698;104.050;2023-07-08T04:00:46;39.90;99.90
17859;DHT22;35426;30.698;104.050;2023-07-08T04:03:20;39.60;99.90
17859;DHT22;35426;30.698;104.050;2023-07-08T04:05:53;39.40;99.90
17859;DHT22;35426;30.698;104.050;2023-07-08T04:08:26;39.00;99.90
17859;DHT22;35426;30.698;104.050;2023-07-08T04:11:00;37.90;99.90
17859;DHT22;35426;30.698;104.050;2023-07-08T04:13:36;37.70;99.90
17859;DHT22;35426;30.698;104.050;2023-07-08T04:16:16;36.80;99.90
17859;DHT22;35426;30.698;104.050;2023-07-08T04:18:50;37.20;99.90
17859;DHT22;35426;30.698;104.050;2023-07-08T04:21:26;37.60;99.90
17859;DHT22;35426;30.698;104.050;2023-07-08T04:24:01;38.30;99.90
17859;DHT22;35426;30.698;104.050;2023-07-08T04:26:34;38.50;99.90
17859;DHT22;35426;30.698;104.050;2023-07-08T04:29:13;37.90;99.90
17859;DHT22;35426;30.698;104.050;2023-07-08T04:31:47;37.80;99.90
17859;DHT22;35426;30.698;104.050;2023-07-08T04:34:21;37.70;99.90
17859;DHT22;35426;30.698;104.050;2023-07-08T04:36:54;37.30;99.90
17859;DHT22;35426;30.698;104.050;2023-07-08T04:39:27;37.30;99.90
17859;DHT22;35426;30.698;104.050;2023-07-08T04:42:00;37.50;99.90
17859;DHT22;35426;30.698;104.050;2023-07-08T04:44:35;37.60;99.90
17859;DHT22;35426;30.698;104.050;2023-07-08T04:47:10;37.50;99.90
17859;DHT22;35426;30.698;104.050;2023-07-08T04:49:44;37.50;99.90
17859;DHT22;35426;30.698;104.050;2023-07-08T04:52:17;37.60;99.90
17859;DHT22;35426;30.698;104.050;2023-07-08T04:54:50;37.70;99.90
17859;DHT22;35426;30.698;104.050;2023-07-08T04:57:24;37.60;99.90
17859;DHT22;35426;30.698;104.050;2023-07-08T04:59:59;37.30;99.90
17859;DHT22;35426;30.698;104.050;2023-07-08T05:02:33;37.60;99.90
17859;DHT22;35426;30.698;104.050;2023-07-08T05:05:10;37.70;99.90
17859;DHT22;35426;30.698;104.050;2023-07-08T05:07:44;37.40;99.90
17859;DHT22;35426;30.698;104.050;2023-07-08T05:10:17;36.70;99.90
17859;DHT22;35426;30.698;104.050;2023-07-08T05:12:52;37.10;99.90
17859;DHT22;35426;30.698;104.050;2023-07-08T05:15:28;36.50;99.90
17859;DHT22;35426;30.698;104.050;2023-07-08T05:18:02;36.70;99.90
17859;DHT22;35426;30.698;104.050;2023-07-08T05:20:41;36.90;99.90
17859;DHT22;35426;30.698;104.050;2023-07-08T05:23:16;36.50;99.90
17859;DHT22;35426;30.698;104.050;2023-07-08T05:25:50;36.00;99.90
17859;DHT22;35426;30.698;104.050;2023-07-08T05:28:26;36.00;99.90
17859;DHT22;35426;30.698;104.050;2023-07-08T05:31:01;36.40;99.90
17859;DHT22;35426;30.698;104.050;2023-07-08T05:33:35;36.60;99.90
17859;DHT22;35426;30.698;104.050;2023-07-08T05:36:09;36.50;99.90
17859;DHT22;35426;30.698;104.050;2023-07-08T05:38:42;36.70;99.90
17859;DHT22;35426;30.698;104.050;2023-07-08T05:41:20;36.70;99.90
17859;DHT22;35426;30.698;104.050;2023-07-08T05:43:53;36.80;99.90
17859;DHT22;35426;30.698;104.050;2023-07-08T05:46:30;36.20;99.90
17859;DHT22;35426;30.698;104.050;2023-07-08T05:49:04;36.40;99.90
17859;DHT22;35426;30.698;104.050;2023-07-08T05:51:38;36.60;99.90
17859;DHT22;35426;30.698;104.050;2023-07-08T05:54:11;36.50;99.90
17859;DHT22;35426;30.698;104.050;2023-07-08T05:56:44;36.80;99.90
17859;DHT22;35426;30.698;104.050;2023-07-08T05:59:18;36.90;99.90
17859;DHT22;35426;30.698;104.050;2023-07-08T06:01:53;37.00;99.90
17859;DHT22;35426;30.698;104.050;2023-07-08T06:04:27;37.00;99.90
17859;DHT22;35426;30.698;104.050;2023-07-08T06:07:01;37.00;99.90
17859;DHT22;35426;30.698;104.050;2023-07-08T06:09:35;37.10;99.90
17859;DHT22;35426;30.698;104.050;2023-07-08T06:12:10;36.90;99.90
17859;DHT22;35426;30.698;104.050;2023-07-08T06:14:44;37.00;99.90
17859;DHT22;35426;30.698;104.050;2023-07-08T06:17:21;36.90;99.90
17859;DHT22;35426;30.698;104.050;2023-07-08T06:20:10;36.80;99.90
17859;DHT22;35426;30.698;104.050;2023-07-08T06:22:48;36.40;99.90
17859;DHT22;35426;30.698;104.050;2023-07-08T06:25:22;36.40;99.90
17859;DHT22;35426;30.698;104.050;2023-07-08T06:27:55;36.50;99.90
17859;DHT22;35426;30.698;104.050;2023-07-08T06:30:29;36.30;99.90
17859;DHT22;35426;30.698;104.050;2023-07-08T06:33:06;36.50;99.90
17859;DHT22;35426;30.698;104.050;2023-07-08T06:35:40;36.50;99.90
17859;DHT22;35426;30.698;104.050;2023-07-08T06:38:13;36.20;99.90
17859;DHT22;35426;30.698;104.050;2023-07-08T06:40:47;36.30;99.90
17859;DHT22;35426;30.698;104.050;2023-07-08T06:43:22;36.00;99.90
17859;DHT22;35426;30.698;104.050;2023-07-08T06:46:02;36.20;99.90
17859;DHT22;35426;30.698;104.050;2023-07-08T06:48:39;36.10;99.90
17859;DHT22;35426;30.698;104.050;2023-07-08T06:51:13;36.40;99.90
17859;DHT22;35426;30.698;104.050;2023-07-08T06:53:48;36.80;99.90
17859;DHT22;35426;30.698;104.050;2023-07-08T06:56:22;36.80;99.90
17859;DHT22;35426;30.698;104.050;2023-07-08T06:58:54;36.90;99.90
17859;DHT22;35426;30.698;104.050;2023-07-08T07:01:28;36.80;99.90
17859;DHT22;35426;30.698;104.050;2023-07-08T07:04:04;36.80;99.90
17859;DHT22;35426;30.698;104.050;2023-07-08T07:06:38;36.60;99.90
17859;DHT22;35426;30.698;104.050;2023-07-08T07:09:12;36.70;99.90
17859;DHT22;35426;30.698;104.050;2023-07-08T07:11:45;36.80;99.90
17859;DHT22;35426;30.698;104.050;2023-07-08T07:14:21;36.30;99.90
17859;DHT22;35426;30.698;104.050;2023-07-08T07:17:00;36.30;99.90
17859;DHT22;35426;30.698;104.050;2023-07-08T07:19:40;36.30;99.90
17859;DHT22;35426;30.698;104.050;2023-07-08T07:22:15;36.50;99.90
17859;DHT22;35426;30.698;104.050;2023-07-08T07:24:49;36.80;99.90
17859;DHT22;35426;30.698;104.050;2023-07-08T07:27:23;36.90;99.90
17859;DHT22;35426;30.698;104.050;2023-07-08T07:29:56;36.80;99.90
17859;DHT22;35426;30.698;104.050;2023-07-08T07:32:30;36.70;99.90
17859;DHT22;35426;30.698;104.050;2023-07-08T07:35:08;36.40;99.90
17859;DHT22;35426;30.698;104.050;2023-07-08T07:37:44;36.50;99.90
17859;DHT22;35426;30.698;104.050;2023-07-08T07:40:18;36.30;99.90
17859;DHT22;35426;30.698;104.050;2023-07-08T07:42:51;36.30;99.90
17859;DHT22;35426;30.698;104.050;2023-07-08T07:45:24;36.40;99.90
17859;DHT22;35426;30.698;104.050;2023-07-08T07:47:57;36.30;99.90
17859;DHT22;35426;30.698;104.050;2023-07-08T07:50:33;36.20;99.90
17859;DHT22;35426;30.698;104.050;2023-07-08T07:53:08;36.40;99.90
17859;DHT22;35426;30.698;104.050;2023-07-08T07:55:42;36.50;99.90
17859;DHT22;35426;30.698;104.050;2023-07-08T07:58:17;36.50;99.90
17859;DHT22;35426;30.698;104.050;2023-07-08T08:00:49;36.60;99.90
17859;DHT22;35426;30.698;104.050;2023-07-08T08:03:23;36.60;99.90
17859;DHT22;35426;30.698;104.050;2023-07-08T08:05:58;36.30;99.90
17859;DHT22;35426;30.698;104.050;2023-07-08T08:08:34;36.40;99.90
17859;DHT22;35426;30.698;104.050;2023-07-08T08:11:08;36.30;99.90
17859;DHT22;35426;30.698;104.050;2023-07-08T08:13:41;36.20;99.90
17859;DHT22;35426;30.698;104.050;2023-07-08T08:16:15;36.20;99.90
17859;DHT22;35426;30.698;104.050;2023-07-08T08:18:50;36.20;99.90
17859;DHT22;35426;30.698;104.050;2023-07-08T08:21:25;36.20;99.90
17859;DHT22;35426;30.698;104.050;2023-07-08T08:23:58;36.20;99.90
17859;DHT22;35426;30.698;104.050;2023-07-08T08:26:31;36.40;99.90
17859;DHT22;35426;30.698;104.050;2023-07-08T08:29:08;36.60;99.90
17859;DHT22;35426;30.698;104.050;2023-07-08T08:31:42;36.70;99.90
17859;DHT22;35426;30.698;104.050;2023-07-08T08:34:14;36.60;99.90
17859;DHT22;35426;30.698;104.050;2023-07-08T08:36:50;36.60;99.90
17859;DHT22;35426;30.698;104.050;2023-07-08T08:39:25;36.30;99.90
17859;DHT22;35426;30.698;104.050;2023-07-08T08:42:00;36.20;99.90
17859;DHT22;35426;30.698;104.050;2023-07-08T08:44:35;36.10;99.90
17859;DHT22;35426;30.698;104.050;2023-07-08T08:47:15;36.30;99.90
17859;DHT22;35426;30.698;104.050;2023-07-08T08:49:56;36.50;99.90
17859;DHT22;35426;30.698;104.050;2023-07-08T08:52:33;36.60;99.90
17859;DHT22;35426;30.698;104.050;2023-07-08T08:55:11;36.40;99.90
17859;DHT22;35426;30.698;104.050;2023-07-08T08:57:48;36.40;99.90
17859;DHT22;35426;30.698;104.050;2023-07-08T09:00:28;36.40;99.90
17859;DHT22;35426;30.698;104.050;2023-07-08T09:03:07;36.40;99.90
17859;DHT22;35426;30.698;104.050;2023-07-08T09:05:44;36.20;99.90
17859;DHT22;35426;30.698;104.050;2023-07-08T09:08:29;36.20;99.90
17859;DHT22;35426;30.698;104.050;2023-07-08T09:11:23;36.10;99.90
17859;DHT22;35426;30.698;104.050;2023-07-08T09:13:58;36.10;99.90
17859;DHT22;35426;30.698;104.050;2023-07-08T09:16:40;36.00;99.90
17859;DHT22;35426;30.698;104.050;2023-07-08T09:19:21;36.00;99.90
17859;DHT22;35426;30.698;104.050;2023-07-08T09:21:59;36.00;99.90
17859;DHT22;35426;30.698;104.050;2023-07-08T09:24:39;36.20;99.90
17859;DHT22;35426;30.698;104.050;2023-07-08T09:27:14;36.10;99.90
17859;DHT22;35426;30.698;104.050;2023-07-08T09:29:47;36.20;99.90
17859;DHT22;35426;30.698;104.050;2023-07-08T09:32:24;36.30;99.90
17859;DHT22;35426;30.698;104.050;2023-07-08T09:35:04;36.50;99.90
17859;DHT22;35426;30.698;104.050;2023-07-08T09:37:39;36.60;99.90
17859;DHT22;35426;30.698;104.050;2023-07-08T09:40:19;36.40;99.90
17859;DHT22;35426;30.698;104.050;2023-07-08T09:45:49;35.90;99.90
17859;DHT22;35426;30.698;104.050;2023-07-08T09:48:25;36.20;99.90
17859;DHT22;35426;30.698;104.050;2023-07-08T09:50:59;36.30;99.90
17859;DHT22;35426;30.698;104.050;2023-07-08T09:53:34;36.00;99.90
17859;DHT22;35426;30.698;104.050;2023-07-08T09:56:10;35.90;99.90
17859;DHT22;35426;30.698;104.050;2023-07-08T09:58:47;35.60;99.90
17859;DHT22;35426;30.698;104.050;2023-07-08T10:01:25;35.30;99.90
17859;DHT22;35426;30.698;104.050;2023-07-08T10:04:00;35.40;99.90
17859;DHT22;35426;30.698;104.050;2023-07-08T10:06:34;35.30;99.90
17859;DHT22;35426;30.698;104.050;2023-07-08T10:09:13;35.20;99.90
17859;DHT22;35426;30.698;104.050;2023-07-08T10:11:56;35.20;99.90
17859;DHT22;35426;30.698;104.050;2023-07-08T10:14:33;35.30;99.90
17859;DHT22;35426;30.698;104.050;2023-07-08T10:17:11;35.20;99.90
17859;DHT22;35426;30.698;104.050;2023-07-08T10:19:46;35.20;99.90
17859;DHT22;35426;30.698;104.050;2023-07-08T10:22:41;35.20;99.90
17859;DHT22;35426;30.698;104.050;2023-07-08T10:25:31;35.20;99.90
17859;DHT22;35426;30.698;104.050;2023-07-08T10:28:26;35.30;99.90
17859;DHT22;35426;30.698;104.050;2023-07-08T10:31:13;35.40;99.90
17859;DHT22;35426;30.698;104.050;2023-07-08T10:34:02;35.40;99.90
17859;DHT22;35426;30.698;104.050;2023-07-08T10:36:46;35.30;99.90
17859;DHT22;35426;30.698;104.050;2023-07-08T10:39:54;35.00;99.90
17859;DHT22;35426;30.698;104.050;2023-07-08T10:42:55;34.80;99.90
17859;DHT22;35426;30.698;104.050;2023-07-08T10:45:38;34.70;99.90
17859;DHT22;35426;30.698;104.050;2023-07-08T10:48:29;34.70;99.90
17859;DHT22;35426;30.698;104.050;2023-07-08T10:51:13;34.70;99.90
17859;DHT22;35426;30.698;104.050;2023-07-08T10:56:51;34.50;99.90
17859;DHT22;35426;30.698;104.050;2023-07-08T10:59:39;34.50;99.90
17859;DHT22;35426;30.698;104.050;2023-07-08T11:02:59;34.60;99.90
17859;DHT22;35426;30.698;104.050;2023-07-08T11:05:41;34.50;99.90
17859;DHT22;35426;30.698;104.050;2023-07-08T11:08:24;34.40;99.90
17859;DHT22;35426;30.698;104.050;2023-07-08T11:11:04;34.40;99.90
17859;DHT22;35426;30.698;104.050;2023-07-08T11:13:48;34.30;99.90
17859;DHT22;35426;30.698;104.050;2023-07-08T11:16:26;34.30;99.90
17859;DHT22;35426;30.698;104.050;2023-07-08T11:19:07;34.40;99.90
17859;DHT22;35426;30.698;104.050;2023-07-08T11:21:45;34.40;99.90
17859;DHT22;35426;30.698;104.050;2023-07-08T11:24:24;34.40;99.90
17859;DHT22;35426;30.698;104.050;2023-07-08T11:27:05;34.20;99.90
17859;DHT22;35426;30.698;104.050;2023-07-08T11:29:45;34.20;99.90
17859;DHT22;35426;30.698;104.050;2023-07-08T11:32:21;34.20;99.90
17859;DHT22;35426;30.698;104.050;2023-07-08T11:34:58;34.30;99.90
17859;DHT22;35426;30.698;104.050;2023-07-08T11:37:34;34.10;99.90
17859;DHT22;35426;30.698;104.050;2023-07-08T11:40:16;34.10;99.90
17859;DHT22;35426;30.698;104.050;2023-07-08T11:42:52;34.10;99.90
17859;DHT22;35426;30.698;104.050;2023-07-08T11:45:32;34.10;99.90
17859;DHT22;35426;30.698;104.050;2023-07-08T11:48:10;34.00;99.90
17859;DHT22;35426;30.698;104.050;2023-07-08T11:50:48;33.90;99.90
17859;DHT22;35426;30.698;104.050;2023-07-08T11:53:37;33.80;99.90
17859;DHT22;35426;30.698;104.050;2023-07-08T11:56:24;33.90;99.90
17859;DHT22;35426;30.698;104.050;2023-07-08T11:59:10;33.90;99.90
17859;DHT22;35426;30.698;104.050;2023-07-08T12:01:52;33.80;99.90
17859;DHT22;35426;30.698;104.050;2023-07-08T12:04:30;33.80;99.90
17859;DHT22;35426;30.698;104.050;2023-07-08T12:07:11;33.70;99.90
17859;DHT22;35426;30.698;104.050;2023-07-08T12:09:56;33.60;99.90
17859;DHT22;35426;30.698;104.050;2023-07-08T12:12:34;33.60;99.90
17859;DHT22;35426;30.698;104.050;2023-07-08T12:15:12;33.60;99.90
17859;DHT22;35426;30.698;104.050;2023-07-08T12:17:48;33.60;99.90
17859;DHT22;35426;30.698;104.050;2023-07-08T12:20:26;33.60;99.90
17859;DHT22;35426;30.698;104.050;2023-07-08T12:23:04;33.60;99.90
17859;DHT22;35426;30.698;104.050;2023-07-08T12:25:42;33.60;99.90
17859;DHT22;35426;30.698;104.050;2023-07-08T12:28:16;33.50;99.90
17859;DHT22;35426;30.698;104.050;2023-07-08T12:30:50;33.60;99.90
17859;DHT22;35426;30.698;104.050;2023-07-08T12:33:28;33.60;99.90
17859;DHT22;35426;30.698;104.050;2023-07-08T12:36:03;33.60;99.90
17859;DHT22;35426;30.698;104.050;2023-07-08T12:38:39;33.50;99.90
17859;DHT22;35426;30.698;104.050;2023-07-08T12:41:18;33.60;99.90
17859;DHT22;35426;30.698;104.050;2023-07-08T12:43:52;33.60;99.90
17859;DHT22;35426;30.698;104.050;2023-07-08T12:46:26;33.60;99.90
17859;DHT22;35426;30.698;104.050;2023-07-08T12:49:01;33.70;99.90
17859;DHT22;35426;30.698;104.050;2023-07-08T12:51:35;33.60;99.90
17859;DHT22;35426;30.698;104.050;2023-07-08T12:54:12;33.60;99.90
17859;DHT22;35426;30.698;104.050;2023-07-08T12:56:46;33.60;99.90
17859;DHT22;35426;30.698;104.050;2023-07-08T12:59:21;33.60;99.90
17859;DHT22;35426;30.698;104.050;2023-07-08T13:01:55;33.50;99.90
17859;DHT22;35426;30.698;104.050;2023-07-08T13:04:28;33.50;99.90
17859;DHT22;35426;30.698;104.050;2023-07-08T13:07:04;33.40;99.90
17859;DHT22;35426;30.698;104.050;2023-07-08T13:09:44;33.40;99.90
17859;DHT22;35426;30.698;104.050;2023-07-08T13:12:21;33.50;99.90
17859;DHT22;35426;30.698;104.050;2023-07-08T13:14:58;33.40;99.90
17859;DHT22;35426;30.698;104.050;2023-07-08T13:17:32;33.30;99.90
17859;DHT22;35426;30.698;104.050;2023-07-08T13:20:14;33.30;99.90
17859;DHT22;35426;30.698;104.050;2023-07-08T13:22:54;33.40;99.90
17859;DHT22;35426;30.698;104.050;2023-07-08T13:25:31;33.50;99.90
17859;DHT22;35426;30.698;104.050;2023-07-08T13:28:17;33.40;99.90
17859;DHT22;35426;30.698;104.050;2023-07-08T13:30:56;33.40;99.90
17859;DHT22;35426;30.698;104.050;2023-07-08T13:33:32;33.30;99.90
17859;DHT22;35426;30.698;104.050;2023-07-08T13:36:06;33.30;99.90
17859;DHT22;35426;30.698;104.050;2023-07-08T13:38:43;33.30;99.90
17859;DHT22;35426;30.698;104.050;2023-07-08T13:41:21;33.20;99.90
17859;DHT22;35426;30.698;104.050;2023-07-08T13:43:57;33.20;99.90
17859;DHT22;35426;30.698;104.050;2023-07-08T13:46:39;33.10;99.90
17859;DHT22;35426;30.698;104.050;2023-07-08T13:49:16;33.10;99.90
17859;DHT22;35426;30.698;104.050;2023-07-08T13:51:55;33.10;99.90
17859;DHT22;35426;30.698;104.050;2023-07-08T13:54:40;33.00;99.90
17859;DHT22;35426;30.698;104.050;2023-07-08T13:57:22;33.00;99.90
17859;DHT22;35426;30.698;104.050;2023-07-08T13:59:57;32.90;99.90
17859;DHT22;35426;30.698;104.050;2023-07-08T14:02:41;32.70;99.90
17859;DHT22;35426;30.698;104.050;2023-07-08T14:05:15;32.70;99.90
17859;DHT22;35426;30.698;104.050;2023-07-08T14:07:52;32.70;99.90
17859;DHT22;35426;30.698;104.050;2023-07-08T14:10:25;32.60;99.90
17859;DHT22;35426;30.698;104.050;2023-07-08T14:13:00;32.50;99.90
17859;DHT22;35426;30.698;104.050;2023-07-08T14:15:34;32.60;99.90
17859;DHT22;35426;30.698;104.050;2023-07-08T14:18:10;32.60;99.90
17859;DHT22;35426;30.698;104.050;2023-07-08T14:20:43;32.60;99.90
17859;DHT22;35426;30.698;104.050;2023-07-08T14:23:16;32.60;99.90
17859;DHT22;35426;30.698;104.050;2023-07-08T14:25:50;32.70;99.90
17859;DHT22;35426;30.698;104.050;2023-07-08T14:28:26;32.60;99.90
17859;DHT22;35426;30.698;104.050;2023-07-08T14:31:00;32.60;99.90
17859;DHT22;35426;30.698;104.050;2023-07-08T14:33:37;32.70;99.90
17859;DHT22;35426;30.698;104.050;2023-07-08T14:36:12;32.80;99.90
17859;DHT22;35426;30.698;104.050;2023-07-08T14:38:46;32.80;99.90
17859;DHT22;35426;30.698;104.050;2023-07-08T14:41:21;32.90;99.90
17859;DHT22;35426;30.698;104.050;2023-07-08T14:43:57;33.00;99.90
17859;DHT22;35426;30.698;104.050;2023-07-08T14:46:30;33.00;99.90
17859;DHT22;35426;30.698;104.050;2023-07-08T14:49:11;32.90;99.90
17859;DHT22;35426;30.698;104.050;2023-07-08T14:51:47;32.90;99.90
17859;DHT22;35426;30.698;104.050;2023-07-08T14:54:20;32.90;99.90
17859;DHT22;35426;30.698;104.050;2023-07-08T14:56:57;32.90;99.90
17859;DHT22;35426;30.698;104.050;2023-07-08T14:59:35;32.90;99.90
17859;DHT22;35426;30.698;104.050;2023-07-08T15:02:19;32.80;99.90
17859;DHT22;35426;30.698;104.050;2023-07-08T15:04:55;32.80;99.90
17859;DHT22;35426;30.698;104.050;2023-07-08T15:07:28;32.80;99.90
17859;DHT22;35426;30.698;104.050;2023-07-08T15:10:02;32.80;99.90
17859;DHT22;35426;30.698;104.050;2023-07-08T15:12:35;32.80;99.90
17859;DHT22;35426;30.698;104.050;2023-07-08T15:15:18;32.80;99.90
17859;DHT22;35426;30.698;104.050;2023-07-08T15:17:55;32.90;99.90
17859;DHT22;35426;30.698;104.050;2023-07-08T15:20:31;32.90;99.90
17859;DHT22;35426;30.698;104.050;2023-07-08T15:23:06;32.90;99.90
17859;DHT22;35426;30.698;104.050;2023-07-08T15:25:40;32.90;99.90
17859;DHT22;35426;30.698;104.050;2023-07-08T15:28:18;32.90;99.90
17859;DHT22;35426;30.698;104.050;2023-07-08T15:30:57;32.80;99.90
17859;DHT22;35426;30.698;104.050;2023-07-08T15:33:32;32.70;99.90
17859;DHT22;35426;30.698;104.050;2023-07-08T15:36:09;32.70;99.90
17859;DHT22;35426;30.698;104.050;2023-07-08T15:38:44;32.70;99.90
17859;DHT22;35426;30.698;104.050;2023-07-08T15:41:22;32.60;99.90
17859;DHT22;35426;30.698;104.050;2023-07-08T15:43:56;32.70;99.90
17859;DHT22;35426;30.698;104.050;2023-07-08T15:46:33;32.70;99.90
17859;DHT22;35426;30.698;104.050;2023-07-08T15:49:14;32.70;99.90
17859;DHT22;35426;30.698;104.050;2023-07-08T15:51:48;32.70;99.90
17859;DHT22;35426;30.698;104.050;2023-07-08T15:54:21;32.60;99.90
17859;DHT22;35426;30.698;104.050;2023-07-08T15:56:54;32.60;99.90
17859;DHT22;35426;30.698;104.050;2023-07-08T15:59:29;32.50;99.90
17859;DHT22;35426;30.698;104.050;2023-07-08T16:02:15;32.50;99.90
17859;DHT22;35426;30.698;104.050;2023-07-08T16:04:55;32.50;99.90
17859;DHT22;35426;30.698;104.050;2023-07-08T16:07:30;32.30;99.90